Patcona II — WDC2170 — position and weather

sailwx.info

Track history (hours):
 
Tides and Currents Weather Stations Pressure Air Temp Water Temp Dewpoint Dewpoint Depression Visibility Wind Speed Wind Dir Waves Ship Positions

Patcona II

Owner: Connolly-Pacific Co, long beach, CA. More information available from US FCC via Universal Licensing System and Coast Guard Vessel Documentation Center.

Last reported at 2016-Sep-26 08:03 UTC. Time now 2016-Sep-26 20:47 UTC.
Position N 33°46' W 118°13'.

; draft 9 m.

Type: Towing. MMSI: 366988960.

Date/timePositionNaut miles runAvg speedWind from/ knotsBaromVisibWave heightAir tempDewpointWater temp
2016-Sep-26 08:03N 33°46' W 118°13'0 0.0
2016-Sep-26 02:19N 33°46' W 118°13'0 0.1
2016-Sep-26 01:32N 33°46' W 118°13'0 0.0
2016-Sep-25 21:33N 33°46' W 118°13'0 0.0
2016-Sep-25 17:33N 33°46' W 118°13'0 0.0
2016-Sep-25 16:33N 33°46' W 118°13'0 0.0
2016-Sep-25 15:33N 33°46' W 118°13'0 0.1
2016-Sep-25 14:33N 33°46' W 118°13'0 0.0
2016-Sep-25 12:30N 33°46' W 118°13'0 0.1
2016-Sep-25 11:33N 33°46' W 118°13'0 0.1
2016-Sep-25 10:33N 33°46' W 118°13'0 0.0
2016-Sep-25 09:33N 33°46' W 118°13'0 0.0
2016-Sep-25 07:33N 33°46' W 118°13'0 0.0
2016-Sep-25 04:32N 33°46' W 118°13'1204301.7
2016-Sep-25 00:33N 29°45' W 095°06'120456273.5
2016-Sep-25 00:31N 33°46' W 118°13'0 0.0
2016-Sep-24 22:31N 33°46' W 118°13'0 0.0
2016-Sep-24 21:32N 33°46' W 118°13'0 0.0
2016-Sep-24 19:33N 33°46' W 118°13'0 0.1
2016-Sep-24 18:33N 33°46' W 118°13'0 0.0
2016-Sep-24 17:33N 33°46' W 118°13'0 0.0
2016-Sep-24 16:33N 33°46' W 118°13'0 0.0
2016-Sep-24 14:33N 33°46' W 118°13'0 0.0
2016-Sep-24 12:33N 33°46' W 118°13'0 0.0
2016-Sep-24 10:32N 33°46' W 118°13'0 0.0
2016-Sep-24 09:33N 33°46' W 118°13'3 0.5
2016-Sep-24 03:34N 33°43' W 118°14'2 2.3
2016-Sep-24 02:33N 33°41' W 118°14'4 4.4
2016-Sep-24 01:33N 33°37' W 118°15'4 4.4
2016-Sep-24 00:33N 33°32' W 118°16'13 1.5
2016-Sep-23 15:33N 33°19' W 118°18'121313313.3
2016-Sep-23 15:28N 29°37' W 095°00'0 0.0
2016-Sep-23 13:28N 29°37' W 095°00'2 0.6
2016-Sep-23 09:33N 29°37' W 094°57'1213362.1
2016-Sep-23 06:12N 33°46' W 118°13'1203298.9
2016-Sep-23 02:10N 29°47' W 095°06'120388.3
2016-Sep-22 12:33N 33°46' W 118°13'0 0.0
2016-Sep-22 04:33N 33°46' W 118°13'12102713.2
2016-Sep-22 04:06N 29°37' W 095°01'12102228.9
2016-Sep-22 03:33N 33°46' W 118°13'1210217872.6
2016-Sep-22 03:33N 29°37' W 095°01'0 0.0
2016-Sep-22 00:21N 29°37' W 095°01'0 0.0
2016-Sep-21 23:21N 29°37' W 095°01'0 0.0
2016-Sep-21 22:30N 29°37' W 095°01'9 0.7
2016-Sep-21 09:33N 29°45' W 095°06'0 0.0
2016-Sep-21 08:33N 29°45' W 095°06'1 0.4
2016-Sep-21 05:27N 29°46' W 095°06'1 0.4
2016-Sep-21 03:33N 29°46' W 095°05'1206117.3
2016-Sep-20 17:16N 33°19' W 118°18'0 0.1
2016-Sep-20 14:31N 33°19' W 118°18'27 6.4
2016-Sep-20 10:21N 33°45' W 118°13'1 0.5
2016-Sep-20 08:33N 33°46' W 118°13'0 0.0
2016-Sep-20 07:33N 33°46' W 118°13'0 0.0
2016-Sep-20 06:31N 33°46' W 118°13'0 0.0
2016-Sep-20 02:32N 33°46' W 118°13'0 0.0
2016-Sep-19 23:15N 33°46' W 118°13'6 1.7
2016-Sep-19 19:33N 33°44' W 118°06'0 0.1
2016-Sep-19 18:33N 33°44' W 118°06'2 0.9
2016-Sep-19 16:33N 33°44' W 118°08'5 2.4
2016-Sep-19 14:33N 33°46' W 118°13'0 0.0
2016-Sep-19 13:33N 33°46' W 118°13'0 0.0
2016-Sep-19 12:33N 33°46' W 118°13'0 0.0
2016-Sep-19 11:33N 33°46' W 118°13'0 0.0
2016-Sep-19 09:33N 33°46' W 118°13'0 0.0
2016-Sep-19 07:33N 33°46' W 118°13'0 0.0
2016-Sep-19 06:33N 33°46' W 118°13'0 0.0
2016-Sep-19 03:33N 33°46' W 118°13'0 0.1
2016-Sep-19 02:33N 33°46' W 118°13'0 0.0
2016-Sep-19 00:33N 33°46' W 118°13'0 0.0
2016-Sep-18 19:33N 33°46' W 118°13'0 0.0
2016-Sep-18 15:33N 33°46' W 118°13'0 0.0
2016-Sep-18 14:33N 33°46' W 118°13'0 0.0
2016-Sep-18 10:33N 33°46' W 118°13'0 0.0
2016-Sep-18 09:33N 33°46' W 118°13'0 0.0
2016-Sep-18 02:33N 33°46' W 118°13'0 0.0
2016-Sep-18 01:33N 33°46' W 118°13'0 0.0
2016-Sep-18 00:33N 33°46' W 118°13'0 0.0
2016-Sep-17 22:33N 33°46' W 118°13'0 0.0
2016-Sep-17 21:33N 33°46' W 118°13'0 0.0
2016-Sep-17 20:33N 33°46' W 118°13'0 0.0
2016-Sep-17 19:16N 33°46' W 118°13'0 0.0
2016-Sep-17 13:32N 33°46' W 118°13'0 0.0
2016-Sep-17 12:29N 33°46' W 118°13'0 0.0
2016-Sep-17 10:22N 33°46' W 118°13'0 0.0
2016-Sep-17 09:27N 33°46' W 118°13'0 0.0
2016-Sep-17 08:33N 33°46' W 118°13'0 0.0
2016-Sep-17 07:33N 33°46' W 118°13'0 0.0
2016-Sep-17 05:33N 33°46' W 118°13'0 0.0
2016-Sep-17 04:32N 33°46' W 118°13'10 2.5
2016-Sep-17 00:34N 33°36' W 118°15'  
Track history (hours):
 
Tides and Currents Weather Stations Pressure Air Temp Water Temp Dewpoint Dewpoint Depression Visibility Wind Speed Wind Dir Waves Ship Positions

Patcona II

Owner: Connolly-Pacific Co, long beach, CA. More information available from US FCC via Universal Licensing System and Coast Guard Vessel Documentation Center.

Last reported at 2016-Sep-26 08:03 UTC. Time now 2016-Sep-26 20:47 UTC.
Position N 33°46' W 118°13'.

; draft 9 m.

Type: Towing. MMSI: 366988960.

Date/timePositionNaut miles runAvg speedWind from/ knotsBaromVisibWave heightAir tempDewpointWater temp
2016-Sep-26 08:03N 33°46' W 118°13'0 0.0
2016-Sep-26 02:19N 33°46' W 118°13'0 0.1
2016-Sep-26 01:32N 33°46' W 118°13'0 0.0
2016-Sep-25 21:33N 33°46' W 118°13'0 0.0
2016-Sep-25 17:33N 33°46' W 118°13'0 0.0
2016-Sep-25 16:33N 33°46' W 118°13'0 0.0
2016-Sep-25 15:33N 33°46' W 118°13'0 0.1
2016-Sep-25 14:33N 33°46' W 118°13'0 0.0
2016-Sep-25 12:30N 33°46' W 118°13'0 0.1
2016-Sep-25 11:33N 33°46' W 118°13'0 0.1
2016-Sep-25 10:33N 33°46' W 118°13'0 0.0
2016-Sep-25 09:33N 33°46' W 118°13'0 0.0
2016-Sep-25 07:33N 33°46' W 118°13'0 0.0
2016-Sep-25 04:32N 33°46' W 118°13'1204301.7
2016-Sep-25 00:33N 29°45' W 095°06'120456273.5
2016-Sep-25 00:31N 33°46' W 118°13'0 0.0
2016-Sep-24 22:31N 33°46' W 118°13'0 0.0
2016-Sep-24 21:32N 33°46' W 118°13'0 0.0
2016-Sep-24 19:33N 33°46' W 118°13'0 0.1
2016-Sep-24 18:33N 33°46' W 118°13'0 0.0
2016-Sep-24 17:33N 33°46' W 118°13'0 0.0
2016-Sep-24 16:33N 33°46' W 118°13'0 0.0
2016-Sep-24 14:33N 33°46' W 118°13'0 0.0
2016-Sep-24 12:33N 33°46' W 118°13'0 0.0
2016-Sep-24 10:32N 33°46' W 118°13'0 0.0
2016-Sep-24 09:33N 33°46' W 118°13'3 0.5
2016-Sep-24 03:34N 33°43' W 118°14'2 2.3
2016-Sep-24 02:33N 33°41' W 118°14'4 4.4
2016-Sep-24 01:33N 33°37' W 118°15'4 4.4
2016-Sep-24 00:33N 33°32' W 118°16'13 1.5
2016-Sep-23 15:33N 33°19' W 118°18'121313313.3
2016-Sep-23 15:28N 29°37' W 095°00'0 0.0
2016-Sep-23 13:28N 29°37' W 095°00'2 0.6
2016-Sep-23 09:33N 29°37' W 094°57'1213362.1
2016-Sep-23 06:12N 33°46' W 118°13'1203298.9
2016-Sep-23 02:10N 29°47' W 095°06'120388.3
2016-Sep-22 12:33N 33°46' W 118°13'0 0.0
2016-Sep-22 04:33N 33°46' W 118°13'12102713.2
2016-Sep-22 04:06N 29°37' W 095°01'12102228.9
2016-Sep-22 03:33N 33°46' W 118°13'1210217872.6
2016-Sep-22 03:33N 29°37' W 095°01'0 0.0
2016-Sep-22 00:21N 29°37' W 095°01'0 0.0
2016-Sep-21 23:21N 29°37' W 095°01'0 0.0
2016-Sep-21 22:30N 29°37' W 095°01'9 0.7
2016-Sep-21 09:33N 29°45' W 095°06'0 0.0
2016-Sep-21 08:33N 29°45' W 095°06'1 0.4
2016-Sep-21 05:27N 29°46' W 095°06'1 0.4
2016-Sep-21 03:33N 29°46' W 095°05'1206117.3
2016-Sep-20 17:16N 33°19' W 118°18'0 0.1
2016-Sep-20 14:31N 33°19' W 118°18'27 6.4
2016-Sep-20 10:21N 33°45' W 118°13'1 0.5
2016-Sep-20 08:33N 33°46' W 118°13'0 0.0
2016-Sep-20 07:33N 33°46' W 118°13'0 0.0
2016-Sep-20 06:31N 33°46' W 118°13'0 0.0
2016-Sep-20 02:32N 33°46' W 118°13'0 0.0
2016-Sep-19 23:15N 33°46' W 118°13'6 1.7
2016-Sep-19 19:33N 33°44' W 118°06'0 0.1
2016-Sep-19 18:33N 33°44' W 118°06'2 0.9
2016-Sep-19 16:33N 33°44' W 118°08'5 2.4
2016-Sep-19 14:33N 33°46' W 118°13'0 0.0
2016-Sep-19 13:33N 33°46' W 118°13'0 0.0
2016-Sep-19 12:33N 33°46' W 118°13'0 0.0
2016-Sep-19 11:33N 33°46' W 118°13'0 0.0
2016-Sep-19 09:33N 33°46' W 118°13'0 0.0
2016-Sep-19 07:33N 33°46' W 118°13'0 0.0
2016-Sep-19 06:33N 33°46' W 118°13'0 0.0
2016-Sep-19 03:33N 33°46' W 118°13'0 0.1
2016-Sep-19 02:33N 33°46' W 118°13'0 0.0
2016-Sep-19 00:33N 33°46' W 118°13'0 0.0
2016-Sep-18 19:33N 33°46' W 118°13'0 0.0
2016-Sep-18 15:33N 33°46' W 118°13'0 0.0
2016-Sep-18 14:33N 33°46' W 118°13'0 0.0
2016-Sep-18 10:33N 33°46' W 118°13'0 0.0
2016-Sep-18 09:33N 33°46' W 118°13'0 0.0
2016-Sep-18 02:33N 33°46' W 118°13'0 0.0
2016-Sep-18 01:33N 33°46' W 118°13'0 0.0
2016-Sep-18 00:33N 33°46' W 118°13'0 0.0
2016-Sep-17 22:33N 33°46' W 118°13'0 0.0
2016-Sep-17 21:33N 33°46' W 118°13'0 0.0
2016-Sep-17 20:33N 33°46' W 118°13'0 0.0
2016-Sep-17 19:16N 33°46' W 118°13'0 0.0
2016-Sep-17 13:32N 33°46' W 118°13'0 0.0
2016-Sep-17 12:29N 33°46' W 118°13'0 0.0
2016-Sep-17 10:22N 33°46' W 118°13'0 0.0
2016-Sep-17 09:27N 33°46' W 118°13'0 0.0
2016-Sep-17 08:33N 33°46' W 118°13'0 0.0
2016-Sep-17 07:33N 33°46' W 118°13'0 0.0
2016-Sep-17 05:33N 33°46' W 118°13'0 0.0
2016-Sep-17 04:32N 33°46' W 118°13'10 2.5
2016-Sep-17 00:34N 33°36' W 118°15'  

Dump ship's entire track history